sensor_id;sensor_type;location;lat;lon;timestamp;P1;durP1;ratioP1;P2;durP2;ratioP2
21138;SDS011;10727;43.600;1.444;2023-05-24T00:01:35;3.33;;;2.88;;
21138;SDS011;10727;43.600;1.444;2023-05-24T00:04:44;4.00;;;2.92;;
21138;SDS011;10727;43.600;1.444;2023-05-24T00:07:53;6.70;;;3.30;;
21138;SDS011;10727;43.600;1.444;2023-05-24T00:10:58;4.20;;;2.78;;
21138;SDS011;10727;43.600;1.444;2023-05-24T00:14:03;5.00;;;3.08;;
21138;SDS011;10727;43.600;1.444;2023-05-24T00:17:08;5.20;;;3.00;;
21138;SDS011;10727;43.600;1.444;2023-05-24T00:20:14;4.40;;;2.90;;
21138;SDS011;10727;43.600;1.444;2023-05-24T00:23:23;3.30;;;2.65;;
21138;SDS011;10727;43.600;1.444;2023-05-24T00:26:28;4.53;;;2.85;;
21138;SDS011;10727;43.600;1.444;2023-05-24T00:29:34;3.10;;;2.80;;
21138;SDS011;10727;43.600;1.444;2023-05-24T00:32:39;4.75;;;2.97;;
21138;SDS011;10727;43.600;1.444;2023-05-24T00:35:44;3.40;;;2.80;;
21138;SDS011;10727;43.600;1.444;2023-05-24T00:38:52;3.03;;;2.72;;
21138;SDS011;10727;43.600;1.444;2023-05-24T00:41:56;4.85;;;2.92;;
21138;SDS011;10727;43.600;1.444;2023-05-24T00:45:02;3.20;;;2.72;;
21138;SDS011;10727;43.600;1.444;2023-05-24T00:48:07;3.47;;;3.17;;
21138;SDS011;10727;43.600;1.444;2023-05-24T00:51:12;8.13;;;3.38;;
21138;SDS011;10727;43.600;1.444;2023-05-24T00:54:18;4.15;;;2.70;;
21138;SDS011;10727;43.600;1.444;2023-05-24T00:57:24;3.85;;;3.20;;
21138;SDS011;10727;43.600;1.444;2023-05-24T01:00:29;3.67;;;3.25;;
21138;SDS011;10727;43.600;1.444;2023-05-24T01:03:34;3.88;;;2.95;;
21138;SDS011;10727;43.600;1.444;2023-05-24T01:06:42;3.70;;;2.85;;
21138;SDS011;10727;43.600;1.444;2023-05-24T01:10:01;5.18;;;3.10;;
21138;SDS011;10727;43.600;1.444;2023-05-24T01:13:11;6.28;;;3.17;;
21138;SDS011;10727;43.600;1.444;2023-05-24T01:16:21;3.50;;;3.00;;
21138;SDS011;10727;43.600;1.444;2023-05-24T01:23:04;3.40;;;3.10;;
21138;SDS011;10727;43.600;1.444;2023-05-24T01:26:18;4.80;;;3.20;;
21138;SDS011;10727;43.600;1.444;2023-05-24T01:29:25;3.97;;;3.00;;
21138;SDS011;10727;43.600;1.444;2023-05-24T01:32:30;3.22;;;2.92;;
21138;SDS011;10727;43.600;1.444;2023-05-24T01:35:35;4.50;;;3.33;;
21138;SDS011;10727;43.600;1.444;2023-05-24T01:38:42;5.68;;;3.30;;
21138;SDS011;10727;43.600;1.444;2023-05-24T01:41:50;5.38;;;3.45;;
21138;SDS011;10727;43.600;1.444;2023-05-24T01:45:05;5.75;;;3.60;;
21138;SDS011;10727;43.600;1.444;2023-05-24T01:48:13;4.55;;;3.10;;
21138;SDS011;10727;43.600;1.444;2023-05-24T01:51:21;3.85;;;3.42;;
21138;SDS011;10727;43.600;1.444;2023-05-24T01:54:29;3.85;;;3.45;;
21138;SDS011;10727;43.600;1.444;2023-05-24T01:57:34;6.72;;;3.40;;
21138;SDS011;10727;43.600;1.444;2023-05-24T02:00:44;4.07;;;3.40;;
21138;SDS011;10727;43.600;1.444;2023-05-24T02:03:49;3.67;;;3.13;;
21138;SDS011;10727;43.600;1.444;2023-05-24T02:06:54;5.28;;;3.80;;
21138;SDS011;10727;43.600;1.444;2023-05-24T02:09:59;4.30;;;3.55;;
21138;SDS011;10727;43.600;1.444;2023-05-24T02:13:05;4.15;;;3.75;;
21138;SDS011;10727;43.600;1.444;2023-05-24T02:16:12;7.03;;;3.80;;
21138;SDS011;10727;43.600;1.444;2023-05-24T02:19:18;5.38;;;3.80;;
21138;SDS011;10727;43.600;1.444;2023-05-24T02:22:23;5.38;;;3.90;;
21138;SDS011;10727;43.600;1.444;2023-05-24T02:25:28;4.65;;;4.00;;
21138;SDS011;10727;43.600;1.444;2023-05-24T02:28:34;4.20;;;3.63;;
21138;SDS011;10727;43.600;1.444;2023-05-24T02:31:40;5.28;;;3.65;;
21138;SDS011;10727;43.600;1.444;2023-05-24T02:34:45;6.40;;;3.85;;
21138;SDS011;10727;43.600;1.444;2023-05-24T02:37:51;4.97;;;3.50;;
21138;SDS011;10727;43.600;1.444;2023-05-24T02:40:56;4.55;;;3.70;;
21138;SDS011;10727;43.600;1.444;2023-05-24T02:44:01;4.70;;;3.88;;
21138;SDS011;10727;43.600;1.444;2023-05-24T02:47:07;5.07;;;3.90;;
21138;SDS011;10727;43.600;1.444;2023-05-24T02:50:13;4.45;;;3.70;;
21138;SDS011;10727;43.600;1.444;2023-05-24T02:53:18;5.18;;;4.03;;
21138;SDS011;10727;43.600;1.444;2023-05-24T02:56:24;5.60;;;4.00;;
21138;SDS011;10727;43.600;1.444;2023-05-24T02:59:30;5.30;;;4.05;;
21138;SDS011;10727;43.600;1.444;2023-05-24T03:02:38;8.68;;;4.15;;
21138;SDS011;10727;43.600;1.444;2023-05-24T03:05:43;5.68;;;4.13;;
21138;SDS011;10727;43.600;1.444;2023-05-24T03:08:49;4.43;;;3.60;;
21138;SDS011;10727;43.600;1.444;2023-05-24T03:11:55;7.07;;;3.83;;
21138;SDS011;10727;43.600;1.444;2023-05-24T03:15:00;4.63;;;3.47;;
21138;SDS011;10727;43.600;1.444;2023-05-24T03:18:09;5.20;;;3.80;;
21138;SDS011;10727;43.600;1.444;2023-05-24T03:21:15;4.85;;;3.53;;
21138;SDS011;10727;43.600;1.444;2023-05-24T03:24:22;5.25;;;3.38;;
21138;SDS011;10727;43.600;1.444;2023-05-24T03:27:28;5.00;;;3.75;;
21138;SDS011;10727;43.600;1.444;2023-05-24T03:30:33;4.35;;;3.75;;
21138;SDS011;10727;43.600;1.444;2023-05-24T03:33:39;4.93;;;3.55;;
21138;SDS011;10727;43.600;1.444;2023-05-24T03:36:44;4.07;;;3.65;;
21138;SDS011;10727;43.600;1.444;2023-05-24T03:39:50;4.28;;;3.70;;
21138;SDS011;10727;43.600;1.444;2023-05-24T03:43:12;5.07;;;3.85;;
21138;SDS011;10727;43.600;1.444;2023-05-24T03:46:46;8.10;;;4.07;;
21138;SDS011;10727;43.600;1.444;2023-05-24T03:49:52;9.23;;;4.32;;
21138;SDS011;10727;43.600;1.444;2023-05-24T03:52:57;4.28;;;3.88;;
21138;SDS011;10727;43.600;1.444;2023-05-24T03:56:03;7.15;;;4.28;;
21138;SDS011;10727;43.600;1.444;2023-05-24T03:59:08;7.00;;;3.85;;
21138;SDS011;10727;43.600;1.444;2023-05-24T04:02:13;6.22;;;4.00;;
21138;SDS011;10727;43.600;1.444;2023-05-24T04:05:20;5.65;;;3.92;;
21138;SDS011;10727;43.600;1.444;2023-05-24T04:08:30;7.55;;;3.92;;
21138;SDS011;10727;43.600;1.444;2023-05-24T04:11:35;5.53;;;3.92;;
21138;SDS011;10727;43.600;1.444;2023-05-24T04:14:40;7.43;;;4.40;;
21138;SDS011;10727;43.600;1.444;2023-05-24T04:17:48;5.75;;;3.97;;
21138;SDS011;10727;43.600;1.444;2023-05-24T04:20:59;5.63;;;4.07;;
21138;SDS011;10727;43.600;1.444;2023-05-24T04:24:05;4.85;;;3.70;;
21138;SDS011;10727;43.600;1.444;2023-05-24T04:27:11;5.53;;;4.07;;
21138;SDS011;10727;43.600;1.444;2023-05-24T04:30:16;7.78;;;4.50;;
21138;SDS011;10727;43.600;1.444;2023-05-24T04:33:23;6.65;;;4.10;;
21138;SDS011;10727;43.600;1.444;2023-05-24T04:36:29;7.03;;;4.20;;
21138;SDS011;10727;43.600;1.444;2023-05-24T04:39:35;4.38;;;3.85;;
21138;SDS011;10727;43.600;1.444;2023-05-24T04:42:41;6.38;;;4.00;;
21138;SDS011;10727;43.600;1.444;2023-05-24T04:45:46;5.82;;;4.53;;
21138;SDS011;10727;43.600;1.444;2023-05-24T04:48:51;4.93;;;3.83;;
21138;SDS011;10727;43.600;1.444;2023-05-24T04:51:57;6.28;;;3.95;;
21138;SDS011;10727;43.600;1.444;2023-05-24T04:55:03;5.68;;;4.30;;
21138;SDS011;10727;43.600;1.444;2023-05-24T04:58:08;8.93;;;4.35;;
21138;SDS011;10727;43.600;1.444;2023-05-24T05:01:13;5.85;;;4.50;;
21138;SDS011;10727;43.600;1.444;2023-05-24T05:04:18;5.45;;;4.53;;
21138;SDS011;10727;43.600;1.444;2023-05-24T05:07:25;6.05;;;5.03;;
21138;SDS011;10727;43.600;1.444;2023-05-24T05:10:30;6.47;;;4.47;;
21138;SDS011;10727;43.600;1.444;2023-05-24T05:13:35;7.80;;;4.80;;
21138;SDS011;10727;43.600;1.444;2023-05-24T05:16:40;5.70;;;4.88;;
21138;SDS011;10727;43.600;1.444;2023-05-24T05:19:47;6.03;;;4.88;;
21138;SDS011;10727;43.600;1.444;2023-05-24T05:22:53;8.27;;;5.40;;
21138;SDS011;10727;43.600;1.444;2023-05-24T05:25:58;6.28;;;5.40;;
21138;SDS011;10727;43.600;1.444;2023-05-24T05:29:03;6.40;;;5.63;;
21138;SDS011;10727;43.600;1.444;2023-05-24T05:32:08;7.65;;;5.75;;
21138;SDS011;10727;43.600;1.444;2023-05-24T05:35:14;7.95;;;5.93;;
21138;SDS011;10727;43.600;1.444;2023-05-24T05:38:20;7.88;;;6.03;;
21138;SDS011;10727;43.600;1.444;2023-05-24T05:41:25;7.20;;;6.20;;
21138;SDS011;10727;43.600;1.444;2023-05-24T05:44:32;7.88;;;6.80;;
21138;SDS011;10727;43.600;1.444;2023-05-24T05:47:41;7.13;;;6.13;;
21138;SDS011;10727;43.600;1.444;2023-05-24T05:50:46;7.72;;;6.55;;
21138;SDS011;10727;43.600;1.444;2023-05-24T05:53:53;8.85;;;6.38;;
21138;SDS011;10727;43.600;1.444;2023-05-24T05:56:58;8.40;;;5.82;;
21138;SDS011;10727;43.600;1.444;2023-05-24T06:00:03;8.50;;;6.70;;
21138;SDS011;10727;43.600;1.444;2023-05-24T06:03:15;9.18;;;7.20;;
21138;SDS011;10727;43.600;1.444;2023-05-24T06:06:20;9.38;;;6.95;;
21138;SDS011;10727;43.600;1.444;2023-05-24T06:09:27;9.70;;;7.10;;
21138;SDS011;10727;43.600;1.444;2023-05-24T06:12:32;9.18;;;6.82;;
21138;SDS011;10727;43.600;1.444;2023-05-24T06:15:37;8.77;;;6.82;;
21138;SDS011;10727;43.600;1.444;2023-05-24T06:18:42;9.00;;;6.70;;
21138;SDS011;10727;43.600;1.444;2023-05-24T06:21:47;9.48;;;6.93;;
21138;SDS011;10727;43.600;1.444;2023-05-24T06:24:54;10.85;;;6.85;;
21138;SDS011;10727;43.600;1.444;2023-05-24T06:28:00;10.27;;;6.50;;
21138;SDS011;10727;43.600;1.444;2023-05-24T06:31:05;13.98;;;9.48;;
21138;SDS011;10727;43.600;1.444;2023-05-24T06:34:10;11.40;;;7.70;;
21138;SDS011;10727;43.600;1.444;2023-05-24T06:37:15;10.70;;;7.40;;
21138;SDS011;10727;43.600;1.444;2023-05-24T06:40:21;10.68;;;7.20;;
21138;SDS011;10727;43.600;1.444;2023-05-24T06:43:26;10.73;;;7.00;;
21138;SDS011;10727;43.600;1.444;2023-05-24T06:46:32;10.05;;;6.93;;
21138;SDS011;10727;43.600;1.444;2023-05-24T06:49:38;8.52;;;6.65;;
21138;SDS011;10727;43.600;1.444;2023-05-24T06:52:44;13.55;;;7.30;;
21138;SDS011;10727;43.600;1.444;2023-05-24T06:55:50;7.78;;;6.75;;
21138;SDS011;10727;43.600;1.444;2023-05-24T06:58:55;8.18;;;6.57;;
21138;SDS011;10727;43.600;1.444;2023-05-24T07:02:00;8.90;;;6.75;;
21138;SDS011;10727;43.600;1.444;2023-05-24T07:05:06;8.77;;;6.57;;
21138;SDS011;10727;43.600;1.444;2023-05-24T07:08:14;13.55;;;7.07;;
21138;SDS011;10727;43.600;1.444;2023-05-24T07:11:20;10.88;;;8.05;;
21138;SDS011;10727;43.600;1.444;2023-05-24T07:14:26;13.80;;;7.40;;
21138;SDS011;10727;43.600;1.444;2023-05-24T07:17:31;10.48;;;7.05;;
21138;SDS011;10727;43.600;1.444;2023-05-24T07:20:36;11.07;;;6.78;;
21138;SDS011;10727;43.600;1.444;2023-05-24T07:23:41;12.30;;;6.95;;
21138;SDS011;10727;43.600;1.444;2023-05-24T07:26:48;10.68;;;6.88;;
21138;SDS011;10727;43.600;1.444;2023-05-24T07:29:53;10.60;;;6.82;;
21138;SDS011;10727;43.600;1.444;2023-05-24T07:32:58;9.45;;;7.07;;
21138;SDS011;10727;43.600;1.444;2023-05-24T07:36:05;11.27;;;7.07;;
21138;SDS011;10727;43.600;1.444;2023-05-24T07:39:10;7.95;;;7.13;;
21138;SDS011;10727;43.600;1.444;2023-05-24T07:42:19;9.07;;;6.47;;
21138;SDS011;10727;43.600;1.444;2023-05-24T07:45:24;9.95;;;7.10;;
21138;SDS011;10727;43.600;1.444;2023-05-24T07:48:29;9.13;;;7.22;;
21138;SDS011;10727;43.600;1.444;2023-05-24T07:51:35;8.82;;;6.80;;
21138;SDS011;10727;43.600;1.444;2023-05-24T07:54:39;9.68;;;7.00;;
21138;SDS011;10727;43.600;1.444;2023-05-24T07:57:46;8.70;;;6.75;;
21138;SDS011;10727;43.600;1.444;2023-05-24T08:00:51;8.32;;;6.57;;
21138;SDS011;10727;43.600;1.444;2023-05-24T08:03:56;8.40;;;6.88;;
21138;SDS011;10727;43.600;1.444;2023-05-24T08:07:01;14.45;;;7.70;;
21138;SDS011;10727;43.600;1.444;2023-05-24T08:10:08;11.98;;;6.97;;
21138;SDS011;10727;43.600;1.444;2023-05-24T08:13:17;11.80;;;8.65;;
21138;SDS011;10727;43.600;1.444;2023-05-24T08:16:22;11.30;;;8.00;;
21138;SDS011;10727;43.600;1.444;2023-05-24T08:19:27;16.70;;;9.38;;
21138;SDS011;10727;43.600;1.444;2023-05-24T08:22:37;13.32;;;8.60;;
21138;SDS011;10727;43.600;1.444;2023-05-24T08:25:42;11.57;;;8.88;;
21138;SDS011;10727;43.600;1.444;2023-05-24T08:28:49;13.45;;;7.72;;
21138;SDS011;10727;43.600;1.444;2023-05-24T08:31:54;9.60;;;7.70;;
21138;SDS011;10727;43.600;1.444;2023-05-24T08:34:59;10.48;;;7.55;;
21138;SDS011;10727;43.600;1.444;2023-05-24T08:38:05;11.48;;;7.60;;
21138;SDS011;10727;43.600;1.444;2023-05-24T08:41:10;15.93;;;8.70;;
21138;SDS011;10727;43.600;1.444;2023-05-24T08:44:16;13.13;;;7.93;;
21138;SDS011;10727;43.600;1.444;2023-05-24T08:47:23;10.85;;;7.93;;
21138;SDS011;10727;43.600;1.444;2023-05-24T08:50:28;10.32;;;7.65;;
21138;SDS011;10727;43.600;1.444;2023-05-24T08:53:33;9.90;;;7.63;;
21138;SDS011;10727;43.600;1.444;2023-05-24T08:56:40;11.00;;;8.43;;
21138;SDS011;10727;43.600;1.444;2023-05-24T08:59:46;11.43;;;8.10;;
21138;SDS011;10727;43.600;1.444;2023-05-24T09:02:51;11.95;;;8.02;;
21138;SDS011;10727;43.600;1.444;2023-05-24T09:05:56;11.43;;;8.23;;
21138;SDS011;10727;43.600;1.444;2023-05-24T09:09:03;10.48;;;8.15;;
21138;SDS011;10727;43.600;1.444;2023-05-24T09:12:09;10.02;;;7.88;;
21138;SDS011;10727;43.600;1.444;2023-05-24T09:15:17;10.20;;;8.25;;
21138;SDS011;10727;43.600;1.444;2023-05-24T09:18:22;10.50;;;8.02;;
21138;SDS011;10727;43.600;1.444;2023-05-24T09:21:27;11.45;;;9.10;;
21138;SDS011;10727;43.600;1.444;2023-05-24T09:24:39;11.63;;;8.70;;
21138;SDS011;10727;43.600;1.444;2023-05-24T09:27:47;15.40;;;8.70;;
21138;SDS011;10727;43.600;1.444;2023-05-24T09:30:58;10.85;;;8.07;;
21138;SDS011;10727;43.600;1.444;2023-05-24T09:34:03;11.88;;;8.25;;
21138;SDS011;10727;43.600;1.444;2023-05-24T09:37:13;12.20;;;9.02;;
21138;SDS011;10727;43.600;1.444;2023-05-24T09:40:19;10.73;;;8.60;;
21138;SDS011;10727;43.600;1.444;2023-05-24T09:43:25;12.68;;;8.55;;
21138;SDS011;10727;43.600;1.444;2023-05-24T09:46:36;13.73;;;9.30;;
21138;SDS011;10727;43.600;1.444;2023-05-24T09:49:41;10.10;;;8.27;;
21138;SDS011;10727;43.600;1.444;2023-05-24T09:52:48;11.48;;;8.80;;
21138;SDS011;10727;43.600;1.444;2023-05-24T09:55:56;11.60;;;8.32;;
21138;SDS011;10727;43.600;1.444;2023-05-24T09:59:05;11.60;;;8.05;;
21138;SDS011;10727;43.600;1.444;2023-05-24T10:02:12;12.73;;;8.85;;
21138;SDS011;10727;43.600;1.444;2023-05-24T10:05:20;11.48;;;8.40;;
21138;SDS011;10727;43.600;1.444;2023-05-24T10:08:25;11.50;;;8.23;;
21138;SDS011;10727;43.600;1.444;2023-05-24T10:11:31;12.77;;;10.40;;
21138;SDS011;10727;43.600;1.444;2023-05-24T10:14:36;13.38;;;10.65;;
21138;SDS011;10727;43.600;1.444;2023-05-24T10:17:43;11.00;;;9.80;;
21138;SDS011;10727;43.600;1.444;2023-05-24T10:20:48;12.82;;;8.57;;
21138;SDS011;10727;43.600;1.444;2023-05-24T10:23:56;21.85;;;16.85;;
21138;SDS011;10727;43.600;1.444;2023-05-24T10:27:01;14.60;;;10.95;;
21138;SDS011;10727;43.600;1.444;2023-05-24T10:30:10;13.18;;;8.88;;
21138;SDS011;10727;43.600;1.444;2023-05-24T10:33:19;13.15;;;8.63;;
21138;SDS011;10727;43.600;1.444;2023-05-24T10:36:25;10.77;;;7.97;;
21138;SDS011;10727;43.600;1.444;2023-05-24T10:39:31;12.80;;;8.15;;
21138;SDS011;10727;43.600;1.444;2023-05-24T10:42:37;12.18;;;8.48;;
21138;SDS011;10727;43.600;1.444;2023-05-24T10:45:47;10.70;;;8.00;;
21138;SDS011;10727;43.600;1.444;2023-05-24T10:48:59;14.23;;;8.88;;
21138;SDS011;10727;43.600;1.444;2023-05-24T10:52:08;13.43;;;8.68;;
21138;SDS011;10727;43.600;1.444;2023-05-24T10:55:13;13.32;;;8.60;;
21138;SDS011;10727;43.600;1.444;2023-05-24T10:58:18;10.68;;;8.52;;
21138;SDS011;10727;43.600;1.444;2023-05-24T11:01:24;11.82;;;8.45;;
21138;SDS011;10727;43.600;1.444;2023-05-24T11:04:32;11.80;;;9.35;;
21138;SDS011;10727;43.600;1.444;2023-05-24T11:07:41;10.20;;;8.68;;
21138;SDS011;10727;43.600;1.444;2023-05-24T11:10:46;10.60;;;8.43;;
21138;SDS011;10727;43.600;1.444;2023-05-24T11:13:54;16.42;;;10.82;;
21138;SDS011;10727;43.600;1.444;2023-05-24T11:17:00;15.55;;;11.27;;
21138;SDS011;10727;43.600;1.444;2023-05-24T11:20:09;13.18;;;9.13;;
21138;SDS011;10727;43.600;1.444;2023-05-24T11:23:15;13.10;;;9.68;;
21138;SDS011;10727;43.600;1.444;2023-05-24T11:26:21;15.27;;;10.15;;
21138;SDS011;10727;43.600;1.444;2023-05-24T11:29:26;11.80;;;9.98;;
21138;SDS011;10727;43.600;1.444;2023-05-24T11:32:32;12.05;;;9.27;;
21138;SDS011;10727;43.600;1.444;2023-05-24T11:35:39;14.95;;;9.43;;
21138;SDS011;10727;43.600;1.444;2023-05-24T11:38:44;14.32;;;9.68;;
21138;SDS011;10727;43.600;1.444;2023-05-24T11:41:52;18.90;;;9.70;;
21138;SDS011;10727;43.600;1.444;2023-05-24T11:45:11;14.65;;;9.77;;
21138;SDS011;10727;43.600;1.444;2023-05-24T11:48:18;18.10;;;10.00;;
21138;SDS011;10727;43.600;1.444;2023-05-24T11:51:27;14.55;;;10.20;;
21138;SDS011;10727;43.600;1.444;2023-05-24T11:54:33;11.43;;;9.50;;
21138;SDS011;10727;43.600;1.444;2023-05-24T11:57:39;12.85;;;8.82;;
21138;SDS011;10727;43.600;1.444;2023-05-24T12:00:47;14.15;;;9.55;;
21138;SDS011;10727;43.600;1.444;2023-05-24T12:03:52;12.82;;;9.65;;
21138;SDS011;10727;43.600;1.444;2023-05-24T12:06:59;13.07;;;9.70;;
21138;SDS011;10727;43.600;1.444;2023-05-24T12:10:05;14.35;;;10.60;;
21138;SDS011;10727;43.600;1.444;2023-05-24T12:13:19;15.00;;;10.07;;
21138;SDS011;10727;43.600;1.444;2023-05-24T12:16:26;16.85;;;11.05;;
21138;SDS011;10727;43.600;1.444;2023-05-24T12:19:34;14.88;;;11.13;;
21138;SDS011;10727;43.600;1.444;2023-05-24T12:22:45;15.05;;;10.52;;
21138;SDS011;10727;43.600;1.444;2023-05-24T12:25:56;14.25;;;9.75;;
21138;SDS011;10727;43.600;1.444;2023-05-24T12:29:02;14.95;;;10.07;;
21138;SDS011;10727;43.600;1.444;2023-05-24T12:32:08;13.38;;;9.80;;
21138;SDS011;10727;43.600;1.444;2023-05-24T12:35:15;15.88;;;10.60;;
21138;SDS011;10727;43.600;1.444;2023-05-24T12:38:24;10.93;;;9.43;;
21138;SDS011;10727;43.600;1.444;2023-05-24T12:41:29;13.02;;;10.15;;
21138;SDS011;10727;43.600;1.444;2023-05-24T12:44:35;13.77;;;10.25;;
21138;SDS011;10727;43.600;1.444;2023-05-24T12:47:41;12.00;;;9.75;;
21138;SDS011;10727;43.600;1.444;2023-05-24T12:50:46;12.50;;;9.65;;
21138;SDS011;10727;43.600;1.444;2023-05-24T13:03:34;16.33;;;12.27;;
21138;SDS011;10727;43.600;1.444;2023-05-24T13:06:38;17.60;;;13.00;;
21138;SDS011;10727;43.600;1.444;2023-05-24T13:09:43;17.05;;;12.35;;
21138;SDS011;10727;43.600;1.444;2023-05-24T13:12:48;14.90;;;11.52;;
21138;SDS011;10727;43.600;1.444;2023-05-24T13:15:54;14.43;;;10.88;;
21138;SDS011;10727;43.600;1.444;2023-05-24T13:19:01;15.80;;;11.85;;
21138;SDS011;10727;43.600;1.444;2023-05-24T13:22:06;16.00;;;11.32;;
21138;SDS011;10727;43.600;1.444;2023-05-24T13:25:11;16.45;;;11.05;;
21138;SDS011;10727;43.600;1.444;2023-05-24T13:28:16;14.00;;;11.00;;
21138;SDS011;10727;43.600;1.444;2023-05-24T13:31:21;16.00;;;11.63;;
21138;SDS011;10727;43.600;1.444;2023-05-24T13:34:27;14.25;;;11.05;;
21138;SDS011;10727;43.600;1.444;2023-05-24T13:37:32;15.10;;;10.63;;
21138;SDS011;10727;43.600;1.444;2023-05-24T13:40:38;13.98;;;11.13;;
21138;SDS011;10727;43.600;1.444;2023-05-24T13:43:44;16.27;;;11.23;;
21138;SDS011;10727;43.600;1.444;2023-05-24T13:46:49;16.05;;;11.23;;
21138;SDS011;10727;43.600;1.444;2023-05-24T13:49:55;16.45;;;11.15;;
21138;SDS011;10727;43.600;1.444;2023-05-24T13:53:01;13.55;;;10.73;;
21138;SDS011;10727;43.600;1.444;2023-05-24T13:56:07;13.77;;;11.00;;
21138;SDS011;10727;43.600;1.444;2023-05-24T13:59:12;16.17;;;11.52;;
21138;SDS011;10727;43.600;1.444;2023-05-24T14:02:17;15.10;;;11.02;;
21138;SDS011;10727;43.600;1.444;2023-05-24T14:05:23;13.80;;;11.18;;
21138;SDS011;10727;43.600;1.444;2023-05-24T14:08:30;17.92;;;12.35;;
21138;SDS011;10727;43.600;1.444;2023-05-24T14:11:36;25.38;;;18.83;;
21138;SDS011;10727;43.600;1.444;2023-05-24T14:14:41;37.08;;;22.05;;
21138;SDS011;10727;43.600;1.444;2023-05-24T14:17:49;27.02;;;15.85;;
21138;SDS011;10727;43.600;1.444;2023-05-24T14:20:55;19.42;;;13.48;;
21138;SDS011;10727;43.600;1.444;2023-05-24T14:24:00;19.38;;;12.90;;
21138;SDS011;10727;43.600;1.444;2023-05-24T14:27:05;16.58;;;12.10;;
21138;SDS011;10727;43.600;1.444;2023-05-24T14:30:11;18.88;;;11.70;;
21138;SDS011;10727;43.600;1.444;2023-05-24T14:33:16;13.57;;;11.05;;
21138;SDS011;10727;43.600;1.444;2023-05-24T14:36:22;15.48;;;10.63;;
21138;SDS011;10727;43.600;1.444;2023-05-24T14:39:27;15.00;;;10.88;;
21138;SDS011;10727;43.600;1.444;2023-05-24T14:42:32;13.57;;;10.38;;
21138;SDS011;10727;43.600;1.444;2023-05-24T14:45:38;14.60;;;10.40;;
21138;SDS011;10727;43.600;1.444;2023-05-24T14:48:43;13.43;;;10.60;;
21138;SDS011;10727;43.600;1.444;2023-05-24T14:51:49;14.55;;;10.38;;
21138;SDS011;10727;43.600;1.444;2023-05-24T14:54:54;14.13;;;10.25;;
21138;SDS011;10727;43.600;1.444;2023-05-24T14:58:00;11.48;;;10.23;;
21138;SDS011;10727;43.600;1.444;2023-05-24T15:01:05;14.43;;;10.73;;
21138;SDS011;10727;43.600;1.444;2023-05-24T15:04:10;13.90;;;10.75;;
21138;SDS011;10727;43.600;1.444;2023-05-24T15:07:17;12.05;;;9.70;;
21138;SDS011;10727;43.600;1.444;2023-05-24T15:10:23;13.15;;;10.55;;
21138;SDS011;10727;43.600;1.444;2023-05-24T15:13:28;13.85;;;10.68;;
21138;SDS011;10727;43.600;1.444;2023-05-24T15:16:33;13.05;;;10.90;;
21138;SDS011;10727;43.600;1.444;2023-05-24T15:19:38;25.30;;;14.35;;
21138;SDS011;10727;43.600;1.444;2023-05-24T15:22:44;13.90;;;10.98;;
21138;SDS011;10727;43.600;1.444;2023-05-24T15:25:50;13.30;;;9.88;;
21138;SDS011;10727;43.600;1.444;2023-05-24T15:28:55;95.35;;;42.47;;
21138;SDS011;10727;43.600;1.444;2023-05-24T15:32:03;19.77;;;13.07;;
21138;SDS011;10727;43.600;1.444;2023-05-24T15:35:08;14.27;;;10.63;;
21138;SDS011;10727;43.600;1.444;2023-05-24T15:38:15;13.80;;;10.70;;
21138;SDS011;10727;43.600;1.444;2023-05-24T15:41:20;20.70;;;14.35;;
21138;SDS011;10727;43.600;1.444;2023-05-24T15:44:25;18.42;;;12.45;;
21138;SDS011;10727;43.600;1.444;2023-05-24T15:47:30;14.90;;;11.35;;
21138;SDS011;10727;43.600;1.444;2023-05-24T15:50:40;12.90;;;10.57;;
21138;SDS011;10727;43.600;1.444;2023-05-24T15:53:46;11.77;;;10.00;;
21138;SDS011;10727;43.600;1.444;2023-05-24T15:56:51;14.13;;;10.80;;
21138;SDS011;10727;43.600;1.444;2023-05-24T15:59:56;12.30;;;10.48;;
21138;SDS011;10727;43.600;1.444;2023-05-24T16:03:02;13.63;;;9.60;;
21138;SDS011;10727;43.600;1.444;2023-05-24T16:06:08;13.43;;;9.73;;
21138;SDS011;10727;43.600;1.444;2023-05-24T16:09:14;12.07;;;9.25;;
21138;SDS011;10727;43.600;1.444;2023-05-24T16:12:19;11.98;;;10.23;;
21138;SDS011;10727;43.600;1.444;2023-05-24T16:15:24;12.23;;;10.00;;
21138;SDS011;10727;43.600;1.444;2023-05-24T16:18:31;12.80;;;9.98;;
21138;SDS011;10727;43.600;1.444;2023-05-24T16:21:38;11.68;;;9.68;;
21138;SDS011;10727;43.600;1.444;2023-05-24T16:24:45;14.68;;;9.90;;
21138;SDS011;10727;43.600;1.444;2023-05-24T16:27:50;13.35;;;9.20;;
21138;SDS011;10727;43.600;1.444;2023-05-24T16:30:58;12.32;;;10.00;;
21138;SDS011;10727;43.600;1.444;2023-05-24T16:34:05;12.00;;;9.50;;
21138;SDS011;10727;43.600;1.444;2023-05-24T16:37:10;10.45;;;8.90;;
21138;SDS011;10727;43.600;1.444;2023-05-24T16:40:17;12.02;;;9.63;;
21138;SDS011;10727;43.600;1.444;2023-05-24T16:43:23;12.65;;;9.80;;
21138;SDS011;10727;43.600;1.444;2023-05-24T16:46:28;12.57;;;9.65;;
21138;SDS011;10727;43.600;1.444;2023-05-24T16:49:33;12.00;;;9.38;;
21138;SDS011;10727;43.600;1.444;2023-05-24T16:52:38;10.60;;;8.57;;
21138;SDS011;10727;43.600;1.444;2023-05-24T16:55:44;13.85;;;9.52;;
21138;SDS011;10727;43.600;1.444;2023-05-24T16:58:55;9.95;;;8.55;;
21138;SDS011;10727;43.600;1.444;2023-05-24T17:02:00;14.23;;;10.52;;
21138;SDS011;10727;43.600;1.444;2023-05-24T17:05:05;11.45;;;9.20;;
21138;SDS011;10727;43.600;1.444;2023-05-24T17:08:11;11.77;;;8.45;;
21138;SDS011;10727;43.600;1.444;2023-05-24T17:11:18;13.68;;;10.25;;
21138;SDS011;10727;43.600;1.444;2023-05-24T17:14:24;11.48;;;9.63;;
21138;SDS011;10727;43.600;1.444;2023-05-24T17:17:30;12.32;;;10.38;;
21138;SDS011;10727;43.600;1.444;2023-05-24T17:20:35;13.82;;;9.68;;
21138;SDS011;10727;43.600;1.444;2023-05-24T17:23:40;12.82;;;10.10;;
21138;SDS011;10727;43.600;1.444;2023-05-24T17:26:47;12.25;;;10.02;;
21138;SDS011;10727;43.600;1.444;2023-05-24T17:29:52;13.73;;;11.05;;
21138;SDS011;10727;43.600;1.444;2023-05-24T17:32:58;14.40;;;9.63;;
21138;SDS011;10727;43.600;1.444;2023-05-24T17:36:03;12.32;;;10.45;;
21138;SDS011;10727;43.600;1.444;2023-05-24T17:39:08;13.38;;;10.55;;
21138;SDS011;10727;43.600;1.444;2023-05-24T17:42:15;14.07;;;11.18;;
21138;SDS011;10727;43.600;1.444;2023-05-24T17:45:20;15.18;;;11.13;;
21138;SDS011;10727;43.600;1.444;2023-05-24T17:48:25;14.20;;;10.80;;
21138;SDS011;10727;43.600;1.444;2023-05-24T17:51:30;14.63;;;9.60;;
21138;SDS011;10727;43.600;1.444;2023-05-24T17:54:37;12.85;;;11.30;;
21138;SDS011;10727;43.600;1.444;2023-05-24T17:57:43;23.75;;;18.02;;
21138;SDS011;10727;43.600;1.444;2023-05-24T18:00:48;18.17;;;13.48;;
21138;SDS011;10727;43.600;1.444;2023-05-24T18:03:53;15.13;;;11.35;;
21138;SDS011;10727;43.600;1.444;2023-05-24T18:06:59;13.45;;;11.48;;
21138;SDS011;10727;43.600;1.444;2023-05-24T18:10:04;22.50;;;11.65;;
21138;SDS011;10727;43.600;1.444;2023-05-24T18:13:10;20.88;;;12.85;;
21138;SDS011;10727;43.600;1.444;2023-05-24T18:16:15;23.52;;;14.52;;
21138;SDS011;10727;43.600;1.444;2023-05-24T18:19:21;22.38;;;15.77;;
21138;SDS011;10727;43.600;1.444;2023-05-24T18:22:28;24.50;;;15.70;;
21138;SDS011;10727;43.600;1.444;2023-05-24T18:25:33;21.83;;;15.13;;
21138;SDS011;10727;43.600;1.444;2023-05-24T18:28:40;34.53;;;20.15;;
21138;SDS011;10727;43.600;1.444;2023-05-24T18:31:45;26.45;;;17.65;;
21138;SDS011;10727;43.600;1.444;2023-05-24T18:34:50;24.20;;;17.10;;
21138;SDS011;10727;43.600;1.444;2023-05-24T18:37:55;30.35;;;19.10;;
21138;SDS011;10727;43.600;1.444;2023-05-24T18:41:00;31.02;;;20.08;;